Portada
METAR-TAF:

METAR-TAF

Aeropuertos :

Viru-Viru, Bolivia

Aeropuerto Internacional Viru Viru

latitud: 17-38S, longitud: 063-08W, altitud: 373 m

Observación

El informe se hizo hace 1 hora y 3 minutos, a las 13:00 UTC
Viento 9 kt del norte-noroeste
Temperatura 20°C
Humedad 78%
Presión 1015 hPa
Visibilidad 10 km o más

METAR: SLVR 221300Z 34009KT 9999 NSC 20/16 Q1015

Hora: 10:03 (14:03 UTC)

Pronóstico

El informe se hizo hace 4 horas y 3 minutos, a las 10:00 UTC
Pronóstico válido del 22 a las 12 UTC al 23 a las 12 UTC
Viento 5 kt del norte-noroeste
Visibilidad 10 km o más
Temporalmente
del 22 a las 15 UTC al 22 a las 19 UTC
Viento 12 kt del norte-noroeste con ráfagas de 25 kt
Escasas nubes a una altura de 2000 ft
Evolucionando progresivamente
del 22 a las 23 UTC al 23 a las 03 UTC
Viento 10 kt del norte

TAF: SLVR 221000Z 2212/2312 34005KT 9999 NSC TX27/2219Z TN16/2311Z TEMPO 2215/2219 34012G25KT FEW020 BECMG 2223/2303 35010KT NSC

Observaciones y pronósticos meteorológicos de más de 4000 aeropuertos (mensajes METAR y TAF).

Los puntos amarillos y rojos representan las estaciones disponibles.

Ponga el ratón en el punto deseado para ver el nombre de la estación.

Haga clic para ver las observaciones y los pronósticos meteorológicos.

Para cambiar el mapa : haga clic en los botones verdes con una cruz de color negro para hacer un zoom, en el botón verde con un guión para alejar o en las flechas verdes para mapas adyacentes.


METAR-TAF: